N6229P -KVUO

Flight info

Callsign N6229P
Flight time N/A
Altitude VFR
Route
Aircraft PA24/L-DOV/C

Departure

Time N/A
Airport -

Arrival

Time 2026-05-04 03:32
Airport Pearson Field (KVUO)
Time Latitude Longitude Altitude Speed Heading
2026-05-04 02:59 44.53012 -123.00750 4520 ft 141 kts 20°
2026-05-04 02:59 44.53919 -123.00291 4521 ft 140 kts 20°
2026-05-04 02:59 44.54839 -122.99829 4521 ft 140 kts 20°
2026-05-04 03:00 44.55759 -122.99366 4518 ft 140 kts 19°
2026-05-04 03:00 44.56678 -122.98907 4519 ft 141 kts 20°
2026-05-04 03:00 44.57600 -122.98447 4522 ft 141 kts 19°
2026-05-04 03:00 44.58525 -122.97985 4516 ft 141 kts 19°
2026-05-04 03:01 44.59453 -122.97522 4521 ft 141 kts 19°
2026-05-04 03:01 44.60380 -122.97064 4521 ft 141 kts 19°
2026-05-04 03:01 44.61305 -122.96607 4519 ft 141 kts 19°
2026-05-04 03:01 44.62232 -122.96154 4518 ft 141 kts 19°
2026-05-04 03:02 44.63158 -122.95702 4517 ft 141 kts 19°
2026-05-04 03:02 44.64084 -122.95248 4506 ft 141 kts 19°
2026-05-04 03:02 44.65008 -122.94794 4504 ft 141 kts 19°
2026-05-04 03:02 44.65939 -122.94342 4503 ft 142 kts 19°
2026-05-04 03:03 44.66875 -122.93887 4500 ft 143 kts 19°
2026-05-04 03:03 44.67804 -122.93431 4508 ft 144 kts 19°
2026-05-04 03:03 44.68749 -122.92975 4500 ft 144 kts 19°
2026-05-04 03:03 44.69694 -122.92514 4505 ft 144 kts 19°
2026-05-04 03:04 44.70642 -122.92056 4502 ft 144 kts 19°
2026-05-04 03:04 44.71593 -122.91599 4496 ft 144 kts 19°
2026-05-04 03:04 44.72541 -122.91143 4498 ft 144 kts 19°
2026-05-04 03:04 44.73486 -122.90691 4498 ft 144 kts 19°
2026-05-04 03:05 44.74431 -122.90241 4500 ft 143 kts 19°
2026-05-04 03:05 44.75378 -122.89793 4499 ft 144 kts 19°
2026-05-04 03:05 44.76326 -122.89347 4504 ft 144 kts 19°
2026-05-04 03:05 44.77274 -122.88899 4495 ft 144 kts 19°
2026-05-04 03:06 44.78222 -122.88451 4498 ft 144 kts 18°
2026-05-04 03:06 44.79175 -122.88002 4499 ft 145 kts 18°
2026-05-04 03:06 44.80130 -122.87624 4500 ft 144 kts 13°
2026-05-04 03:06 44.81124 -122.87419 4496 ft 145 kts
2026-05-04 03:07 44.82129 -122.87325 4495 ft 145 kts
2026-05-04 03:07 44.83135 -122.87237 4497 ft 145 kts
2026-05-04 03:07 44.84139 -122.87153 4496 ft 144 kts
2026-05-04 03:07 44.85139 -122.87069 4497 ft 144 kts
2026-05-04 03:08 44.86140 -122.86992 4496 ft 144 kts
2026-05-04 03:08 44.87137 -122.86913 4493 ft 143 kts
2026-05-04 03:08 44.88135 -122.86830 4496 ft 144 kts
2026-05-04 03:08 44.89134 -122.86751 4495 ft 144 kts
2026-05-04 03:09 44.90133 -122.86667 4490 ft 144 kts
2026-05-04 03:09 44.91132 -122.86534 4496 ft 144 kts
2026-05-04 03:09 44.92132 -122.86353 4496 ft 145 kts
2026-05-04 03:09 44.93135 -122.86174 4496 ft 145 kts
2026-05-04 03:10 44.94137 -122.85991 4499 ft 145 kts
2026-05-04 03:10 44.95126 -122.85812 4497 ft 145 kts
2026-05-04 03:10 44.96140 -122.85625 4498 ft 145 kts
2026-05-04 03:10 44.97129 -122.85446 4497 ft 145 kts
2026-05-04 03:11 44.98131 -122.85267 4497 ft 145 kts
2026-05-04 03:11 44.99135 -122.85094 4495 ft 145 kts
2026-05-04 03:11 45.00139 -122.84918 4497 ft 145 kts
2026-05-04 03:11 45.01144 -122.84743 4498 ft 146 kts
2026-05-04 03:12 45.02139 -122.84573 4492 ft 145 kts
2026-05-04 03:12 45.03145 -122.84403 4498 ft 145 kts
2026-05-04 03:12 45.04152 -122.84238 4496 ft 146 kts
2026-05-04 03:12 45.05156 -122.84071 4498 ft 145 kts
2026-05-04 03:13 45.06163 -122.83906 4498 ft 146 kts
2026-05-04 03:13 45.07171 -122.83741 4507 ft 146 kts
2026-05-04 03:13 45.08178 -122.83578 4508 ft 145 kts
2026-05-04 03:13 45.09186 -122.83416 4506 ft 146 kts
2026-05-04 03:14 45.10198 -122.83252 4503 ft 147 kts
2026-05-04 03:14 45.11211 -122.83093 4505 ft 146 kts
2026-05-04 03:14 45.12222 -122.82936 4504 ft 146 kts
2026-05-04 03:14 45.13235 -122.82779 4506 ft 146 kts
2026-05-04 03:15 45.14248 -122.82621 4507 ft 146 kts
2026-05-04 03:15 45.15260 -122.82462 4503 ft 146 kts
2026-05-04 03:15 45.16275 -122.82300 4504 ft 147 kts
2026-05-04 03:15 45.17280 -122.82143 4505 ft 147 kts
2026-05-04 03:16 45.18297 -122.81982 4505 ft 147 kts
2026-05-04 03:16 45.19318 -122.81821 4507 ft 147 kts
2026-05-04 03:16 45.20331 -122.81580 4505 ft 147 kts 11°
2026-05-04 03:16 45.21338 -122.81296 4507 ft 148 kts 11°
2026-05-04 03:17 45.22344 -122.81002 4504 ft 147 kts 12°
2026-05-04 03:17 45.23351 -122.80721 4499 ft 147 kts 11°
2026-05-04 03:17 45.24353 -122.80431 4507 ft 147 kts 12°
2026-05-04 03:17 45.25359 -122.80144 4504 ft 147 kts 12°
2026-05-04 03:18 45.26366 -122.79886 4502 ft 147 kts
2026-05-04 03:18 45.27362 -122.79628 4505 ft 147 kts 17°
2026-05-04 03:18 45.28356 -122.79306 4501 ft 146 kts 11°
2026-05-04 03:18 45.29345 -122.78947 4507 ft 147 kts 17°
2026-05-04 03:19 45.30334 -122.78578 4504 ft 147 kts 15°
2026-05-04 03:19 45.31329 -122.78244 4505 ft 147 kts 14°
2026-05-04 03:19 45.32321 -122.77911 4505 ft 147 kts 13°
2026-05-04 03:19 45.33319 -122.77597 4505 ft 147 kts 15°
2026-05-04 03:20 45.34310 -122.77244 4501 ft 147 kts 16°
2026-05-04 03:20 45.35299 -122.76882 4506 ft 147 kts 14°
2026-05-04 03:20 45.36280 -122.76542 4484 ft 142 kts 15°
2026-05-04 03:20 45.37242 -122.76142 4203 ft 147 kts 20°
2026-05-04 03:21 45.38237 -122.75798 3946 ft 145 kts
2026-05-04 03:21 45.39142 -122.75332 3847 ft 136 kts 26°
2026-05-04 03:21 45.40000 -122.74749 3613 ft 139 kts 24°
2026-05-04 03:21 45.40842 -122.74087 3432 ft 137 kts 30°
2026-05-04 03:22 45.41646 -122.73368 3210 ft 137 kts 32°
2026-05-04 03:22 45.42394 -122.72519 2969 ft 137 kts 36°
2026-05-04 03:22 45.43099 -122.71670 2778 ft 130 kts 54°
2026-05-04 03:22 45.43221 -122.70418 2655 ft 133 kts 101°
2026-05-04 03:23 45.42714 -122.69329 2580 ft 136 kts 130°
2026-05-04 03:23 45.42265 -122.68159 2513 ft 137 kts 85°
2026-05-04 03:23 45.42777 -122.67177 2420 ft 128 kts 12°
2026-05-04 03:23 45.43619 -122.67344 2368 ft 123 kts 339°
2026-05-04 03:24 45.44391 -122.67837 2410 ft 122 kts 336°
2026-05-04 03:24 45.45160 -122.68334 2486 ft 122 kts 341°
2026-05-04 03:24 45.45962 -122.68602 2591 ft 117 kts 357°
2026-05-04 03:24 45.46772 -122.68526 2686 ft 116 kts
2026-05-04 03:25 45.47560 -122.68353 2785 ft 114 kts
2026-05-04 03:25 45.48370 -122.68298 2852 ft 117 kts 359°
2026-05-04 03:25 45.49172 -122.68256 2946 ft 115 kts
2026-05-04 03:25 45.49947 -122.67965 2963 ft 117 kts 25°
2026-05-04 03:26 45.50619 -122.67295 2829 ft 120 kts 34°
2026-05-04 03:26 45.51320 -122.66616 2649 ft 122 kts 28°
2026-05-04 03:26 45.52044 -122.66009 2465 ft 116 kts 27°
2026-05-04 03:26 45.52748 -122.65471 2116 ft 114 kts 25°
2026-05-04 03:27 45.53450 -122.64944 1751 ft 112 kts 25°
2026-05-04 03:27 45.54143 -122.64423 1462 ft 117 kts 23°
2026-05-04 03:27 45.54868 -122.63905 1387 ft 116 kts 24°
2026-05-04 03:27 45.55561 -122.63381 1411 ft 110 kts 24°
2026-05-04 03:28 45.56196 -122.62923 1461 ft 96 kts 23°
2026-05-04 03:28 45.56772 -122.62507 1477 ft 93 kts 22°
2026-05-04 03:28 45.57364 -122.62114 1530 ft 94 kts 19°
2026-05-04 03:28 45.57970 -122.61755 1515 ft 95 kts 17°
2026-05-04 03:29 45.58577 -122.61465 1537 ft 90 kts 14°
2026-05-04 03:29 45.59147 -122.61230 1566 ft 84 kts 13°
2026-05-04 03:29 45.59701 -122.60991 1550 ft 83 kts 13°
2026-05-04 03:29 45.60246 -122.60746 1549 ft 80 kts 11°
2026-05-04 03:30 45.60784 -122.60575 1528 ft 78 kts
2026-05-04 03:30 45.61294 -122.60776 1501 ft 78 kts 331°
2026-05-04 03:30 45.61628 -122.61404 1317 ft 86 kts 288°
2026-05-04 03:30 45.61665 -122.62267 1095 ft 84 kts 291°
2026-05-04 03:31 45.61754 -122.63029 829 ft 76 kts 283°
2026-05-04 03:31 45.61832 -122.63783 489 ft 79 kts 295°
2026-05-04 03:31 45.61942 -122.64514 219 ft 76 kts 281°
2026-05-04 03:31 45.62003 -122.65259 38 ft 72 kts 282°
2026-05-04 03:32 45.62060 -122.65806 30 ft 40 kts 276°
2026-05-04 03:32 45.62090 -122.66097 31 ft 21 kts 278°
2026-05-04 03:32 45.62116 -122.66266 33 ft 10 kts 329°
2026-05-04 03:32 45.62149 -122.66220 32 ft 0 kts 103°
2026-05-04 03:33 45.62143 -122.66173 31 ft 18 kts 98°
2026-05-04 03:33 45.62116 -122.65899 31 ft 25 kts 97°
2026-05-04 03:33 45.62101 -122.65712 28 ft 10 kts 45°
2026-05-04 03:33 45.62137 -122.65642 26 ft 14 kts 94°
2026-05-04 03:34 45.62155 -122.65555 26 ft 3 kts 75°
2026-05-04 03:34 45.62164 -122.65545 26 ft 0 kts 353°